Terminal Aerodrome Forecast
Issued by NWS

Home | Current Version | Previous Version | Text Only | Print | Product List | Glossary On
Versions: 1 2 3 4 5 6 7 8 9 10 11 12 13 14 15 16 17 18 19
000
FTAK31 PANC 041637 AAC
TAFADL
TAF AMD
PADL 041637Z 0417/0512 03009KT P6SM BKN015
      TEMPO 0417/0419 SCT015 OVC050
     FM041900 04010KT P6SM -SHRA SCT012 OVC021
     FM042200 07010G18KT P6SM -SHRA SCT025 OVC035
     FM050600 03006KT P6SM SCT040 BKN100=

USA.gov is the U.S. government's official web portal to all federal, state and local government web resources and services.